• Join FlightAware (Why Join?)
  • Login
  • US Flag 
01:17AM EDT


 

Airport Tracker/Info


-or-


 

Live Flight TrackerFlight Track Log ✈ EJA898 ✈ 24-Apr-2013 ✈ KTEB - KRKD

Flight Track Log - Related Links

Times and Time Zones

All times are in EDT time to prevent confusion due to time zone crossing. See the EJA898 flight status page for this flight to view local times or setup timezone preferences in your user account.

Time Position Orientation Groundspeed Altitude Reporting Facility
EDT Latitude Longitude Course Direction KTS MPH feet Rate Location/Type
02:33PM 40.8333 -74.0833 252° West 177 204 1,000  Level New York TRACON
02:34PM 40.8167 -74.1500 252° West 188 216 2,300 2,220 Climbing New York TRACON
02:35PM 40.8167 -74.2333 270° West 236 272 5,500 1,800 Climbing New York TRACON
02:36PM 40.8667 -74.3000 315° West 277 319 6,000 240 Climbing New York TRACON
02:37PM 40.9500 -74.2500 24° Northeast 301 346 6,000  Level New York TRACON
02:38PM 41.0167 -74.2167 21° North 299 344 6,000  Level New York TRACON
02:39PM 41.1000 -74.1667 24° Northeast 303 349 6,000 1,200 Level New York TRACON
02:41PM 41.1889 -74.0317 49° Northeast 303 349 9,400 1,800 Climbing Boston Center
02:42PM 41.2111 -73.9272 74° East 311 358 11,000 2,100 Climbing Boston Center
02:43PM 41.2022 -73.7975 95° East 320 368 13,700 2,580 Climbing Boston Center
02:44PM 41.1953 -73.6842 95° East 334 384 16,200 2,160 Climbing Boston Center
02:45PM 41.2608 -73.5917 47° Northeast 339 390 18,100 1,920 Climbing Boston Center
02:46PM 41.3536 -73.4772 43° Northeast 370 426 20,100 1,920 Climbing Boston Center
02:47PM 41.4400 -73.3678 44° Northeast 401 461 22,000 1,920 Climbing Boston Center
02:48PM 41.5283 -73.2525 44° Northeast 418 481 24,000 1,800 Climbing Boston Center
02:49PM 41.6333 -73.1483 37° Northeast 423 487 25,700 1,560 Climbing Boston Center
02:50PM 41.7544 -73.1275 North 424 488 27,200 1,440 Climbing Boston Center
02:51PM 41.8772 -73.1483 353° North 424 488 28,600 1,380 Climbing Boston Center
02:52PM 42.0000 -73.1719 352° North 424 488 30,000 660 Climbing Boston Center
02:53PM 42.1208 -73.1931 353° North 429 494 30,000  Level Boston Center
02:54PM 42.2478 -73.2000 358° North 434 499 30,000  Level Boston Center
02:55PM 42.3567 -73.1256 27° Northeast 482 555 30,000  Level Boston Center
02:56PM 42.4428 -72.9914 49° Northeast 462 532 30,000  Level Boston Center
02:57PM 42.5122 -72.8372 59° Northeast 460 529 30,000  Level Boston Center
02:58PM 42.5814 -72.6797 59° Northeast 478 550 30,000  Level Boston Center
02:59PM 42.6692 -72.4967 57° Northeast 478 550 30,000  Level Boston Center
03:00PM 42.7358 -72.3411 60° Northeast 478 550 30,000  Level Boston Center
03:01PM 42.7981 -72.1883 61° Northeast 466 536 30,000  Level Boston Center
03:02PM 42.8644 -72.0322 60° Northeast 466 536 30,000  Level Boston Center
03:03PM 42.9325 -71.8786 59° Northeast 466 536 30,000 -180 Level Boston Center
03:04PM 42.9983 -71.7219 60° Northeast 466 536 29,700 -840 Descending Boston Center
03:05PM 43.0497 -71.6019 60° Northeast 466 536 28,400 -1,440 Descending Boston Center
03:06PM 43.1131 -71.4531 60° Northeast 466 536 26,900 -1,920 Descending Boston Center
03:07PM 43.1925 -71.2611 60° Northeast 473 544 24,600 -2,280 Descending Boston Center
03:08PM 43.2575 -71.1144 59° Northeast 461 531 22,400 -2,220 Descending Boston Center
03:09PM 43.3161 -70.9675 61° Northeast 448 516 20,200 -2,340 Descending Boston Center
03:10PM 43.3789 -70.8147 60° Northeast 422 486 17,800 -2,340 Descending Boston Center
03:11PM 43.4350 -70.6731 61° Northeast 417 480 15,600 -2,160 Descending Boston Center
03:12PM 43.4872 -70.5514 59° Northeast 417 480 13,500 -1,320 Descending Boston Center
03:13PM 43.5453 -70.4033 62° Northeast 406 467 13,000 -660 Descending Boston Center
03:14PM 43.5931 -70.2872 60° Northeast 393 452 12,200 -960 Descending Boston Center
03:15PM 43.6506 -70.1417 61° Northeast 393 452 11,100 -1,080 Descending Boston Center
03:16PM 43.7042 -70.0103 61° Northeast 393 452 10,100 -960 Descending Boston Center
03:17PM 43.7669 -69.9186 47° Northeast 333 383 9,200 -1,200 Descending Boston Center
03:18PM 43.8161 -69.8878 24° Northeast 303 349 7,700 -1,920 Descending Boston Center
03:19PM 43.9003 -69.8236 29° Northeast 263 303 5,400 -2,100 Descending Boston Center
03:20PM 43.9508 -69.7581 43° Northeast 253 291 3,500 -1,440 Descending Boston Center
03:21PM 43.9906 -69.6811 54° Northeast 242 278 2,600 -480 Descending Boston Center
03:22PM 44.0283 -69.6044 56° Northeast 242 278 2,600  Level Boston Center
03:23PM 44.0681 -69.5244 55° Northeast 242 278 2,600  Level Boston Center
03:24PM 44.1100 -69.4500 52° Northeast 242 278 2,600  Level Boston Center
03:25PM 44.1161 -69.3717 84° East 217 250 2,600 -60 Level Boston Center
03:26PM 44.1164 -69.3022 90° East 197 227 2,500 -300 Descending Boston Center
03:27PM 44.0978 -69.2339 111° Southeast 192 221 2,100 -420 Descending Boston Center
03:29PM 44.0601 -69.0993 85° East  Level Estimated